createdAt,value
2022-10-23T00:03:32.489Z,12.86
2022-10-23T00:08:35.880Z,12.87
2022-10-23T00:13:39.231Z,12.91
2022-10-23T00:18:42.093Z,12.94
2022-10-23T00:23:45.550Z,12.90
2022-10-23T00:28:50.962Z,12.84
2022-10-23T00:33:54.319Z,12.81
2022-10-23T00:38:57.063Z,12.79
2022-10-23T00:44:18.305Z,12.75
2022-10-23T00:49:23.059Z,12.70
2022-10-23T00:54:29.837Z,12.65
2022-10-23T00:59:33.797Z,12.58
2022-10-23T01:04:37.330Z,12.56
2022-10-23T01:09:51.367Z,12.56
2022-10-23T01:15:12.397Z,12.59
2022-10-23T01:20:21.287Z,12.56
2022-10-23T01:25:50.904Z,12.56
2022-10-23T01:30:57.994Z,12.58
2022-10-23T01:36:04.946Z,12.58
2022-10-23T01:41:15.328Z,12.57
2022-10-23T01:46:18.569Z,12.54
2022-10-23T01:51:26.173Z,12.51
2022-10-23T01:56:32.970Z,12.49
2022-10-23T02:01:37.678Z,12.48
2022-10-23T02:06:41.249Z,12.46
2022-10-23T02:12:09.100Z,12.46
2022-10-23T02:17:28.496Z,12.48
2022-10-23T02:22:38.590Z,12.51
2022-10-23T02:27:53.251Z,12.48
2022-10-23T02:32:57.709Z,12.44
2022-10-23T02:38:02.042Z,12.42
2022-10-23T02:43:32.965Z,12.44
2022-10-23T02:48:48.011Z,12.42
2022-10-23T02:54:03.067Z,12.46
2022-10-23T02:59:26.659Z,12.50
2022-10-23T03:04:31.955Z,12.52
2022-10-23T03:09:34.647Z,12.52
2022-10-23T03:14:37.442Z,12.53
2022-10-23T03:19:40.196Z,12.53
2022-10-23T03:24:42.944Z,12.54
2022-10-23T03:29:45.664Z,12.56
2022-10-23T03:34:48.334Z,12.61
2022-10-23T03:39:51.181Z,12.61
2022-10-23T03:44:53.896Z,12.60
2022-10-23T03:49:56.563Z,12.62
2022-10-23T03:54:59.223Z,12.64
2022-10-23T04:00:02.521Z,12.66
2022-10-23T04:05:06.087Z,12.64
2022-10-23T04:10:09.253Z,12.68
2022-10-23T04:15:11.988Z,12.70
2022-10-23T04:20:14.902Z,12.67
2022-10-23T04:25:17.741Z,12.65
2022-10-23T04:30:20.444Z,12.60
2022-10-23T04:35:23.173Z,12.54
2022-10-23T04:40:25.908Z,12.51
2022-10-23T04:45:28.683Z,12.52
2022-10-23T04:50:31.419Z,12.50
2022-10-23T04:55:34.118Z,12.45
2022-10-23T05:00:36.850Z,12.44
2022-10-23T05:05:40.099Z,12.46
2022-10-23T05:10:42.798Z,12.46
2022-10-23T05:15:47.656Z,12.44
2022-10-23T05:20:54.584Z,12.40
2022-10-23T05:25:57.307Z,12.38
2022-10-23T05:31:02.871Z,12.40
2022-10-23T05:36:06.012Z,12.43
2022-10-23T05:41:08.877Z,12.42
2022-10-23T05:46:12.107Z,12.45
2022-10-23T05:51:20.329Z,12.48
2022-10-23T05:56:23.050Z,12.50
2022-10-23T06:01:25.893Z,12.51
2022-10-23T06:06:28.879Z,12.50
2022-10-23T06:11:31.627Z,12.52
2022-10-23T06:16:34.707Z,12.53
2022-10-23T06:21:38.919Z,12.57
2022-10-23T06:26:41.560Z,12.60
2022-10-23T06:31:44.342Z,12.60
2022-10-23T06:36:47.031Z,12.59
2022-10-23T06:41:49.726Z,12.62
2022-10-23T06:46:52.502Z,12.67
2022-10-23T06:51:55.173Z,12.78
2022-10-23T06:56:57.866Z,12.90
2022-10-23T07:02:00.789Z,12.94
2022-10-23T07:07:03.658Z,13.03
2022-10-23T07:12:06.673Z,13.15
2022-10-23T07:17:09.442Z,13.25
2022-10-23T07:22:14.968Z,13.44
2022-10-23T07:27:18.886Z,13.69
2022-10-23T07:32:23.978Z,13.84
2022-10-23T07:37:29.234Z,13.92
2022-10-23T07:42:32.011Z,13.91
2022-10-23T07:47:35.083Z,13.80
2022-10-23T07:52:37.783Z,13.76
2022-10-23T07:57:40.529Z,13.75
2022-10-23T08:02:43.513Z,13.73
2022-10-23T08:07:46.554Z,13.63
2022-10-23T08:12:49.289Z,13.54
2022-10-23T08:17:52.334Z,13.54
2022-10-23T08:22:55.725Z,13.55
2022-10-23T08:27:58.423Z,13.55
2022-10-23T08:33:06.755Z,13.57
2022-10-23T08:38:11.083Z,13.62
2022-10-23T08:43:39.200Z,13.67
2022-10-23T08:48:51.497Z,13.70
2022-10-23T08:54:06.750Z,13.77
2022-10-23T08:59:12.272Z,13.79
2022-10-23T09:04:16.439Z,13.80
2022-10-23T09:09:36.375Z,13.89
2022-10-23T09:14:56.108Z,13.97
2022-10-23T09:20:01.907Z,14.07
2022-10-23T09:25:14.584Z,14.08
2022-10-23T09:30:32.263Z,14.05
2022-10-23T09:35:34.949Z,13.97
2022-10-23T09:40:44.397Z,13.92
2022-10-23T09:46:00.893Z,13.95
2022-10-23T09:51:25.314Z,14.14
2022-10-23T09:56:30.760Z,14.21
2022-10-23T10:01:45.404Z,14.13
2022-10-23T10:06:57.659Z,14.10
2022-10-23T10:12:26.747Z,14.17
2022-10-23T10:17:39.745Z,14.29
2022-10-23T10:23:06.779Z,14.35
2022-10-23T10:28:26.944Z,14.42
2022-10-23T10:33:36.716Z,14.45
2022-10-23T10:38:53.442Z,14.43
2022-10-23T10:44:38.271Z,14.31
2022-10-23T10:49:52.033Z,14.17
2022-10-23T10:55:20.056Z,14.08
2022-10-23T11:00:23.779Z,14.00
2022-10-23T11:11:20.532Z,13.83
2022-10-23T11:16:39.339Z,13.73
2022-10-23T11:21:54.902Z,13.66
2022-10-23T11:27:09.879Z,13.64
2022-10-23T11:32:57.169Z,13.65
2022-10-23T11:38:28.248Z,13.67
2022-10-23T11:43:51.744Z,13.74
2022-10-23T11:48:56.483Z,13.86
2022-10-23T11:54:27.342Z,13.90
2022-10-23T11:59:33.521Z,13.90
2022-10-23T12:04:56.506Z,13.89
2022-10-23T12:10:03.245Z,13.89
2022-10-23T12:15:14.789Z,13.88
2022-10-23T12:20:42.527Z,13.90
2022-10-23T12:26:06.462Z,13.91
2022-10-23T12:31:28.164Z,13.93
2022-10-23T12:37:08.356Z,13.96
2022-10-23T12:42:21.783Z,14.01
2022-10-23T12:47:29.237Z,13.98
2022-10-23T12:52:35.787Z,13.93
2022-10-23T12:57:42.139Z,13.92
2022-10-23T13:02:45.187Z,13.95
2022-10-23T13:07:48.912Z,14.03
2022-10-23T13:13:02.844Z,14.11
2022-10-23T13:18:07.628Z,14.25
2022-10-23T13:23:22.760Z,14.32
2022-10-23T13:28:28.557Z,14.41
2022-10-23T13:33:43.037Z,14.45
2022-10-23T13:39:03.539Z,14.47
2022-10-23T13:44:07.146Z,14.47
2022-10-23T13:49:10.452Z,14.52
2022-10-23T13:59:35.348Z,14.52
2022-10-23T14:04:38.112Z,14.48
2022-10-23T14:09:41.320Z,14.42
2022-10-23T14:14:44.146Z,14.37
2022-10-23T14:19:47.327Z,14.34
2022-10-23T14:24:50.352Z,14.31
2022-10-23T14:29:53.102Z,14.31
2022-10-23T14:34:56.202Z,14.27
2022-10-23T14:39:59.511Z,14.27
2022-10-23T14:45:04.580Z,14.24
2022-10-23T14:50:08.271Z,14.21
2022-10-23T14:55:11.010Z,14.15
2022-10-23T15:00:14.668Z,14.09
2022-10-23T15:05:18.122Z,14.05
2022-10-23T15:10:23.015Z,14.02
2022-10-23T15:15:25.755Z,14.01
2022-10-23T15:20:28.555Z,13.94
2022-10-23T15:25:31.699Z,13.79
2022-10-23T15:30:34.627Z,13.59
2022-10-23T15:35:37.428Z,13.41
2022-10-23T15:40:43.249Z,13.24
2022-10-23T15:45:46.134Z,13.08
2022-10-23T15:50:49.210Z,12.93
2022-10-23T15:55:51.887Z,12.78
2022-10-23T16:00:54.662Z,12.65
2022-10-23T16:05:57.342Z,12.57
2022-10-23T16:11:00.448Z,12.49
2022-10-23T16:16:03.952Z,12.41
2022-10-23T16:21:07.797Z,12.34
2022-10-23T16:26:10.569Z,12.24
2022-10-23T16:31:20.121Z,12.14
2022-10-23T16:36:23.341Z,12.05
2022-10-23T16:41:26.131Z,12.00
2022-10-23T16:46:29.120Z,11.96
2022-10-23T16:51:32.232Z,11.92
2022-10-23T16:56:35.868Z,11.86
2022-10-23T17:01:38.910Z,11.77
2022-10-23T17:06:41.907Z,11.69
2022-10-23T17:11:45.721Z,11.59
2022-10-23T17:16:51.811Z,11.51
2022-10-23T17:21:56.097Z,11.48
2022-10-23T17:26:58.770Z,11.41
2022-10-23T17:32:03.203Z,11.35
2022-10-23T17:37:05.937Z,11.30
2022-10-23T17:42:09.097Z,11.25
2022-10-23T17:47:11.912Z,11.21
2022-10-23T17:52:15.168Z,11.15
2022-10-23T17:57:18.292Z,11.09
2022-10-23T18:02:21.068Z,11.05
2022-10-23T18:07:27.283Z,11.00
2022-10-23T18:12:30.021Z,10.95
2022-10-23T18:17:32.901Z,10.91
2022-10-23T18:22:36.097Z,10.88
2022-10-23T18:27:41.531Z,10.84
2022-10-23T18:32:44.532Z,10.81
2022-10-23T18:37:48.150Z,10.81
2022-10-23T18:42:52.242Z,10.77
2022-10-23T18:47:55.021Z,10.76
2022-10-23T18:52:57.714Z,10.77
2022-10-23T18:58:00.450Z,10.74
2022-10-23T19:03:03.214Z,10.71
2022-10-23T19:08:06.126Z,10.70
2022-10-23T19:13:08.877Z,10.69
2022-10-23T19:18:11.872Z,10.69
2022-10-23T19:23:15.956Z,10.71
2022-10-23T19:28:18.967Z,10.71
2022-10-23T19:33:21.635Z,10.75
2022-10-23T19:38:24.272Z,10.79
2022-10-23T19:43:27.460Z,10.85
2022-10-23T19:48:30.970Z,10.94
2022-10-23T19:53:34.286Z,11.04
2022-10-23T19:58:37.698Z,11.13
2022-10-23T20:03:42.243Z,11.20
2022-10-23T20:08:45.797Z,11.26
2022-10-23T20:13:50.489Z,11.32
2022-10-23T20:18:54.052Z,11.39
2022-10-23T20:24:00.207Z,11.47
2022-10-23T20:29:03.017Z,11.53
2022-10-23T20:34:09.602Z,11.57
2022-10-23T20:39:21.577Z,11.61
2022-10-23T20:44:24.779Z,11.65
2022-10-23T20:49:28.477Z,11.73
2022-10-23T20:54:32.495Z,11.79
2022-10-23T20:59:36.837Z,11.78
2022-10-23T21:04:39.626Z,11.79
2022-10-23T21:09:42.319Z,11.78
2022-10-23T21:14:44.968Z,11.76
2022-10-23T21:19:47.959Z,11.73
2022-10-23T21:24:51.241Z,11.72
2022-10-23T21:29:54.530Z,11.73
2022-10-23T21:34:57.194Z,11.73
2022-10-23T21:40:00.442Z,11.71
2022-10-23T21:45:03.676Z,11.64
2022-10-23T21:50:07.393Z,11.58
2022-10-23T21:55:10.531Z,11.51
2022-10-23T22:00:16.621Z,11.42
2022-10-23T22:05:19.300Z,11.33
2022-10-23T22:10:22.023Z,11.24
2022-10-23T22:15:24.797Z,11.15
2022-10-23T22:20:27.502Z,11.03
2022-10-23T22:25:31.696Z,10.96
2022-10-23T22:30:37.828Z,10.93
2022-10-23T22:35:40.568Z,10.92
2022-10-23T22:40:46.650Z,10.91
2022-10-23T22:45:49.553Z,10.90
2022-10-23T22:50:52.226Z,10.88
2022-10-23T22:55:55.848Z,10.86
2022-10-23T23:01:10.135Z,10.89
2022-10-23T23:06:13.852Z,10.92
2022-10-23T23:11:19.140Z,10.93
2022-10-23T23:16:28.262Z,10.96
2022-10-23T23:21:31.740Z,11.00
2022-10-23T23:26:34.415Z,11.02
2022-10-23T23:31:37.112Z,11.03
2022-10-23T23:36:39.766Z,11.04
2022-10-23T23:41:43.063Z,10.97
2022-10-23T23:46:45.758Z,10.93
2022-10-23T23:51:48.477Z,10.93
2022-10-23T23:56:51.131Z,10.95
